Arcola, MS (38722)

9:20 AM CDT on September 01, 2015 (GMT -0500)
Q102 Downtown Greenville | | Change Station
CLOSE
Current Station
Personal Weather Station
Location: Greenville, MS
Elevation: 141 ft
Nearby Weather Stations

Elev 141 ft 33.41 °N, 91.06 °W | Updated 45 seconds ago

Partly Cloudy
Partly Cloudy
84.9 °F
Feels Like 88 °F
N
4.0
Wind Variable Wind from NW
Gusts 4.0 mph

Today
High -- | Low -- °F
--% Chance of Precip.
Yesterday
High -- | Low -- °F
Precip. -- in
6:37 AM 7:28 PM
Waning Gibbous, 88% visible
Pressure 30.09 in
Visibility 7.0 miles
Clouds Few 7500 ft
Few 9000 ft
Heat Index 88 °F
Dew Point 68 °F
Humidity 58%
Rainfall 0.00 in
Snow Depth Not available.
UV 2 out of 12
Pollen 9.30 out of 12
Air Quality Not available.
Flu Activity Not available.
METAR KGLH 011353Z AUTO 00000KT 7SM FEW075 FEW090 27/20 A3007 RMK AO2 SLP188 T02670200
Pressure 30.09 in
Visibility 7.0 miles
Clouds Few 7500 ft
Few 9000 ft
Heat Index 88 °F
Dew Point 68 °F
Humidity 58%
Rainfall 0.00 in
Snow Depth Not available.
UV 2 out of 12
Pollen 9.30 out of 12
Air Quality Not available.
Flu Activity Not available.
METAR KGLH 011353Z AUTO 00000KT 7SM FEW075 FEW090 27/20 A3007 RMK AO2 SLP188 T02670200

10-Day Weather Forecast

×

Almanac

Astronomy

Sep. 01, 2015 Rise Set
Actual Time
Civil Twilight
Nautical Twilight
Astronomical Twilight
Moon
Length of Visible Light
Length of Day
Tomorrow will be .
, % of the Moon is Illuminated

Today's Extremes

State Highs State Lows

Community

WunderPhotos

Upload Photos

1,851,512 photos uploaded!

WunderBlogs® & News

Nearby

Air Quality

  Air Quality AQ Index Pollutant
Not available.

Snow Depth

Station Depth Elevation

Earthquake Activity

City Distance Mag. Time & Date
Minimum magnitude displayed is 2.5.

Coastal Water Temperatures

Place Temperature

Stations

Nearby Weather Stations

Station Location Temp. Windchill Dew Point Humidity Wind Precip. Elev Updated Type